DLH594 DNAA-DNPO
Flight info
| Callsign | DLH594 |
|---|---|
| Flight time | 0h 43m |
| Altitude | 32000 |
| Route | IKVAD1Q IKVAD DCT IVBUV UV456 BORMO BORMO1R |
| Aircraft | A343/H-SDE2E3FGHIJ4J5M1RWXY/LB1D1 |
Departure
| Time | 2026-05-04 11:27 |
|---|---|
| Airport | Nnamdi Azikiwe International Airport (DNAA) |
Arrival
| Time | 2026-05-04 12:11 |
|---|---|
| Airport | Port Harcourt International Airport (DNPO) |
| Time | Latitude | Longitude | Altitude | Speed | Heading |
|---|---|---|---|---|---|
| 2026-05-04 10:58 | 9.00576 | 7.26755 | 1135 ft | 0 kts | 0° |
| 2026-05-04 11:13 | 9.00573 | 7.26754 | 1132 ft | 3 kts | 360° |
| 2026-05-04 11:13 | 9.00547 | 7.26756 | 1134 ft | 4 kts | 353° |
| 2026-05-04 11:13 | 9.00520 | 7.26760 | 1134 ft | 4 kts | 342° |
| 2026-05-04 11:14 | 9.00496 | 7.26771 | 1135 ft | 4 kts | 319° |
| 2026-05-04 11:14 | 9.00484 | 7.26789 | 1135 ft | 3 kts | 255° |
| 2026-05-04 11:14 | 9.00486 | 7.26796 | 1135 ft | 0 kts | 250° |
| 2026-05-04 11:19 | 9.00483 | 7.26788 | 1135 ft | 2 kts | 250° |
| 2026-05-04 11:19 | 9.00476 | 7.26767 | 1136 ft | 4 kts | 250° |
| 2026-05-04 11:19 | 9.00463 | 7.26732 | 1133 ft | 6 kts | 248° |
| 2026-05-04 11:19 | 9.00445 | 7.26686 | 1134 ft | 8 kts | 252° |
| 2026-05-04 11:20 | 9.00458 | 7.26642 | 1117 ft | 8 kts | 307° |
| 2026-05-04 11:20 | 9.00515 | 7.26604 | 1117 ft | 12 kts | 330° |
| 2026-05-04 11:20 | 9.00581 | 7.26543 | 1116 ft | 15 kts | 306° |
| 2026-05-04 11:20 | 9.00656 | 7.26516 | 1117 ft | 9 kts | 17° |
| 2026-05-04 11:22 | 9.01077 | 7.26802 | 1116 ft | 19 kts | 35° |
| 2026-05-04 11:22 | 9.01189 | 7.26882 | 1136 ft | 20 kts | 36° |
| 2026-05-04 11:23 | 9.01305 | 7.26964 | 1135 ft | 21 kts | 34° |
| 2026-05-04 11:23 | 9.01429 | 7.27051 | 1137 ft | 22 kts | 34° |
| 2026-05-04 11:24 | 9.01955 | 7.27216 | 1138 ft | 6 kts | 220° |
| 2026-05-04 11:25 | 9.01923 | 7.27194 | 1138 ft | 0 kts | 214° |
| 2026-05-04 11:25 | 9.01922 | 7.27194 | 1138 ft | 0 kts | 214° |
| 2026-05-04 11:25 | 9.01920 | 7.27192 | 1138 ft | 0 kts | 213° |
| 2026-05-04 11:26 | 9.01318 | 7.26767 | 1135 ft | 117 kts | 215° |
| 2026-05-04 11:27 | 8.93872 | 7.24914 | 4816 ft | 203 kts | 179° |
| 2026-05-04 11:28 | 8.92408 | 7.24900 | 5332 ft | 221 kts | 180° |
| 2026-05-04 11:28 | 8.90769 | 7.24840 | 5651 ft | 252 kts | 181° |
| 2026-05-04 11:28 | 8.88939 | 7.24748 | 6165 ft | 273 kts | 182° |
| 2026-05-04 11:28 | 8.86999 | 7.24639 | 6927 ft | 283 kts | 181° |
| 2026-05-04 11:29 | 8.85013 | 7.24519 | 7763 ft | 289 kts | 181° |
| 2026-05-04 11:29 | 8.82985 | 7.24391 | 8649 ft | 295 kts | 180° |
| 2026-05-04 11:29 | 8.80923 | 7.24261 | 9544 ft | 300 kts | 180° |
| 2026-05-04 11:29 | 8.78814 | 7.24130 | 10329 ft | 309 kts | 180° |
| 2026-05-04 11:31 | 8.61730 | 7.23065 | 13355 ft | 404 kts | 179° |
| 2026-05-04 11:33 | 8.41443 | 7.21793 | 17854 ft | 429 kts | 180° |
| 2026-05-04 11:33 | 8.38447 | 7.21607 | 18459 ft | 433 kts | 181° |
| 2026-05-04 11:33 | 8.35423 | 7.21418 | 19020 ft | 436 kts | 181° |
| 2026-05-04 11:34 | 8.32385 | 7.21228 | 19582 ft | 439 kts | 181° |
| 2026-05-04 11:34 | 8.29318 | 7.21037 | 20146 ft | 442 kts | 182° |
| 2026-05-04 11:34 | 8.26239 | 7.20845 | 20698 ft | 445 kts | 182° |
| 2026-05-04 11:34 | 8.23135 | 7.20651 | 21234 ft | 448 kts | 182° |
| 2026-05-04 11:35 | 8.20012 | 7.20457 | 21756 ft | 451 kts | 182° |
| 2026-05-04 11:35 | 8.16863 | 7.20266 | 22255 ft | 454 kts | 182° |
| 2026-05-04 11:35 | 8.13692 | 7.20083 | 22748 ft | 458 kts | 182° |
| 2026-05-04 11:35 | 8.10510 | 7.19894 | 23284 ft | 460 kts | 183° |
| 2026-05-04 11:36 | 8.07307 | 7.19705 | 23745 ft | 462 kts | 183° |
| 2026-05-04 11:36 | 8.04084 | 7.19526 | 24117 ft | 466 kts | 183° |
| 2026-05-04 11:36 | 8.00831 | 7.19347 | 24498 ft | 469 kts | 183° |
| 2026-05-04 11:36 | 7.97607 | 7.19169 | 24885 ft | 472 kts | 183° |
| 2026-05-04 11:37 | 7.94276 | 7.18982 | 25280 ft | 475 kts | 183° |
| 2026-05-04 11:37 | 7.90969 | 7.18795 | 25664 ft | 478 kts | 184° |
| 2026-05-04 11:37 | 7.87681 | 7.18608 | 26028 ft | 481 kts | 184° |
| 2026-05-04 11:37 | 7.84334 | 7.18399 | 26404 ft | 483 kts | 185° |
| 2026-05-04 11:38 | 7.80971 | 7.18097 | 26791 ft | 486 kts | 186° |
| 2026-05-04 11:38 | 7.77586 | 7.17737 | 27164 ft | 489 kts | 187° |
| 2026-05-04 11:38 | 7.74191 | 7.17360 | 27543 ft | 492 kts | 187° |
| 2026-05-04 11:38 | 7.70776 | 7.16985 | 27923 ft | 494 kts | 187° |
| 2026-05-04 11:39 | 7.67339 | 7.16617 | 28279 ft | 497 kts | 186° |
| 2026-05-04 11:39 | 7.63886 | 7.16258 | 28642 ft | 500 kts | 186° |
| 2026-05-04 11:40 | 7.42822 | 7.14322 | 30636 ft | 512 kts | 186° |
| 2026-05-04 11:41 | 7.39290 | 7.14015 | 31081 ft | 509 kts | 186° |
| 2026-05-04 11:41 | 7.35760 | 7.13707 | 31518 ft | 507 kts | 186° |
| 2026-05-04 11:41 | 7.32250 | 7.13398 | 31856 ft | 507 kts | 186° |
| 2026-05-04 11:42 | 7.25293 | 7.12791 | 31969 ft | 492 kts | 185° |
| 2026-05-04 11:42 | 7.18512 | 7.12179 | 31948 ft | 488 kts | 186° |
| 2026-05-04 11:43 | 7.11748 | 7.11567 | 31960 ft | 489 kts | 186° |
| 2026-05-04 11:43 | 7.04980 | 7.10960 | 31958 ft | 489 kts | 186° |
| 2026-05-04 11:44 | 6.98189 | 7.10353 | 31948 ft | 489 kts | 186° |
| 2026-05-04 11:44 | 6.91436 | 7.09586 | 31953 ft | 488 kts | 189° |
| 2026-05-04 11:45 | 6.84726 | 7.08543 | 31952 ft | 488 kts | 187° |
| 2026-05-04 11:45 | 6.77995 | 7.07954 | 31942 ft | 489 kts | 184° |
| 2026-05-04 11:46 | 6.71211 | 7.07513 | 31936 ft | 488 kts | 184° |
| 2026-05-04 11:46 | 6.64436 | 7.07121 | 31951 ft | 487 kts | 184° |
| 2026-05-04 11:47 | 6.57654 | 7.06728 | 31941 ft | 487 kts | 184° |
| 2026-05-04 11:47 | 6.50890 | 7.06283 | 31951 ft | 487 kts | 185° |
| 2026-05-04 11:48 | 6.44134 | 7.05644 | 31948 ft | 487 kts | 186° |
| 2026-05-04 11:48 | 6.37426 | 7.04985 | 31939 ft | 489 kts | 185° |
| 2026-05-04 11:49 | 6.30620 | 7.04346 | 31942 ft | 491 kts | 185° |
| 2026-05-04 11:49 | 6.23815 | 7.03725 | 31953 ft | 491 kts | 185° |
| 2026-05-04 11:50 | 6.17001 | 7.03108 | 31947 ft | 491 kts | 185° |
| 2026-05-04 11:50 | 6.10189 | 7.02492 | 31939 ft | 491 kts | 185° |
| 2026-05-04 11:51 | 6.03373 | 7.01928 | 31953 ft | 491 kts | 184° |
| 2026-05-04 11:51 | 5.96605 | 7.01375 | 31938 ft | 491 kts | 184° |
| 2026-05-04 11:52 | 5.89796 | 7.00816 | 31948 ft | 490 kts | 184° |
| 2026-05-04 11:52 | 5.82993 | 7.00270 | 31939 ft | 491 kts | 182° |
| 2026-05-04 11:52 | 5.79590 | 7.00502 | 31952 ft | 489 kts | 167° |
| 2026-05-04 11:53 | 5.76303 | 7.01354 | 31953 ft | 488 kts | 163° |
| 2026-05-04 11:53 | 5.69779 | 7.03296 | 31950 ft | 489 kts | 163° |
| 2026-05-04 11:55 | 5.44364 | 7.08914 | 28519 ft | 433 kts | 183° |
| 2026-05-04 11:55 | 5.41409 | 7.08694 | 27757 ft | 416 kts | 183° |
| 2026-05-04 11:56 | 5.38599 | 7.08497 | 27289 ft | 393 kts | 182° |
| 2026-05-04 11:56 | 5.35945 | 7.08321 | 26895 ft | 371 kts | 182° |
| 2026-05-04 11:56 | 5.33432 | 7.08162 | 26548 ft | 353 kts | 182° |
| 2026-05-04 11:56 | 5.31034 | 7.08015 | 26099 ft | 340 kts | 182° |
| 2026-05-04 11:57 | 5.28706 | 7.07875 | 25561 ft | 331 kts | 182° |
| 2026-05-04 11:57 | 5.26456 | 7.07727 | 25325 ft | 320 kts | 185° |
| 2026-05-04 11:57 | 5.24282 | 7.07131 | 25258 ft | 329 kts | 203° |
| 2026-05-04 11:57 | 5.22246 | 7.06110 | 25158 ft | 325 kts | 207° |
| 2026-05-04 11:58 | 5.20242 | 7.05047 | 25032 ft | 325 kts | 204° |
| 2026-05-04 11:58 | 5.18077 | 7.04470 | 24949 ft | 322 kts | 179° |
| 2026-05-04 11:58 | 5.15930 | 7.04865 | 24763 ft | 313 kts | 153° |
| 2026-05-04 11:58 | 5.14215 | 7.06154 | 24537 ft | 309 kts | 128° |
| 2026-05-04 11:59 | 5.13197 | 7.08042 | 24117 ft | 311 kts | 104° |
| 2026-05-04 11:59 | 5.13085 | 7.10231 | 23394 ft | 326 kts | 79° |
| 2026-05-04 11:59 | 5.14010 | 7.12351 | 22474 ft | 343 kts | 53° |
| 2026-05-04 11:59 | 5.15803 | 7.13943 | 21600 ft | 359 kts | 30° |
| 2026-05-04 12:00 | 5.18198 | 7.14739 | 20741 ft | 368 kts | 8° |
| 2026-05-04 12:00 | 5.20722 | 7.14545 | 19913 ft | 364 kts | 346° |
| 2026-05-04 12:00 | 5.22939 | 7.13385 | 19125 ft | 360 kts | 322° |
| 2026-05-04 12:00 | 5.24499 | 7.11435 | 18350 ft | 358 kts | 298° |
| 2026-05-04 12:01 | 5.25498 | 7.09167 | 17487 ft | 352 kts | 296° |
| 2026-05-04 12:01 | 5.26793 | 7.07171 | 16615 ft | 336 kts | 320° |
| 2026-05-04 12:02 | 5.32863 | 7.12027 | 11607 ft | 288 kts | 133° |
| 2026-05-04 12:03 | 5.31216 | 7.13186 | 10782 ft | 291 kts | 146° |
| 2026-05-04 12:03 | 5.29486 | 7.14208 | 9975 ft | 286 kts | 143° |
| 2026-05-04 12:03 | 5.27836 | 7.15311 | 9107 ft | 283 kts | 143° |
| 2026-05-04 12:03 | 5.26137 | 7.16234 | 8277 ft | 282 kts | 154° |
| 2026-05-04 12:04 | 5.24231 | 7.16673 | 7434 ft | 283 kts | 174° |
| 2026-05-04 12:04 | 5.22279 | 7.16398 | 6647 ft | 285 kts | 197° |
| 2026-05-04 12:04 | 5.20515 | 7.15501 | 5807 ft | 284 kts | 210° |
| 2026-05-04 12:04 | 5.19008 | 7.14242 | 4962 ft | 281 kts | 228° |
| 2026-05-04 12:05 | 5.18098 | 7.12540 | 4122 ft | 277 kts | 252° |
| 2026-05-04 12:05 | 5.17681 | 7.10668 | 3286 ft | 273 kts | 259° |
| 2026-05-04 12:05 | 5.17361 | 7.08814 | 2562 ft | 265 kts | 260° |
| 2026-05-04 12:05 | 5.17076 | 7.07043 | 2119 ft | 249 kts | 260° |
| 2026-05-04 12:06 | 5.16820 | 7.05408 | 1970 ft | 225 kts | 260° |
| 2026-05-04 12:06 | 5.16535 | 7.03970 | 1876 ft | 193 kts | 251° |
| 2026-05-04 12:06 | 5.15944 | 7.02897 | 1803 ft | 163 kts | 228° |
| 2026-05-04 12:06 | 5.15101 | 7.02232 | 1724 ft | 148 kts | 210° |
| 2026-05-04 12:07 | 5.14219 | 7.01744 | 1572 ft | 144 kts | 208° |
| 2026-05-04 12:07 | 5.13343 | 7.01276 | 1483 ft | 142 kts | 207° |
| 2026-05-04 12:07 | 5.12466 | 7.00807 | 1467 ft | 142 kts | 207° |
| 2026-05-04 12:07 | 5.11599 | 7.00343 | 1458 ft | 139 kts | 208° |
| 2026-05-04 12:08 | 5.10757 | 6.99892 | 1454 ft | 137 kts | 208° |
| 2026-05-04 12:08 | 5.09921 | 6.99444 | 1458 ft | 136 kts | 207° |
| 2026-05-04 12:08 | 5.09091 | 6.98999 | 1459 ft | 136 kts | 208° |
| 2026-05-04 12:08 | 5.08247 | 6.98551 | 1383 ft | 140 kts | 208° |
| 2026-05-04 12:09 | 5.07384 | 6.98089 | 1150 ft | 139 kts | 208° |
| 2026-05-04 12:09 | 5.06544 | 6.97638 | 986 ft | 136 kts | 207° |
| 2026-05-04 12:09 | 5.05717 | 6.97194 | 806 ft | 138 kts | 207° |
| 2026-05-04 12:09 | 5.04866 | 6.96740 | 574 ft | 137 kts | 207° |
| 2026-05-04 12:10 | 5.04022 | 6.96283 | 398 ft | 135 kts | 208° |
| 2026-05-04 12:10 | 5.03203 | 6.95837 | 220 ft | 132 kts | 207° |
| 2026-05-04 12:10 | 5.02397 | 6.95416 | 87 ft | 132 kts | 210° |
| 2026-05-04 12:10 | 5.01680 | 6.95029 | 85 ft | 98 kts | 208° |
| 2026-05-04 12:11 | 5.01182 | 6.94760 | 79 ft | 44 kts | 208° |
| 2026-05-04 12:11 | 5.01009 | 6.94712 | 80 ft | 24 kts | 182° |
| 2026-05-04 12:11 | 5.00880 | 6.94713 | 79 ft | 17 kts | 171° |
| 2026-05-04 12:11 | 5.00840 | 6.94732 | 78 ft | 2 kts | 141° |
| 2026-05-04 12:12 | 5.00828 | 6.94750 | 78 ft | 4 kts | 116° |
| 2026-05-04 12:12 | 5.00818 | 6.94788 | 79 ft | 7 kts | 92° |
| 2026-05-04 12:12 | 5.00818 | 6.94833 | 79 ft | 6 kts | 98° |
| 2026-05-04 12:12 | 5.00828 | 6.94844 | 81 ft | 1 kts | 24° |
| 2026-05-04 12:13 | 5.00850 | 6.94849 | 81 ft | 9 kts | 14° |
| 2026-05-04 12:14 | 5.01479 | 6.95270 | 81 ft | 2 kts | 116° |
| 2026-05-04 12:15 | 5.01471 | 6.95286 | 81 ft | 0 kts | 117° |